sensor_id;sensor_type;location;lat;lon;timestamp;temperature;humidity
1025;DHT22;501;48.214;11.350;2023-07-30T00:01:20;19.30;62.00
1025;DHT22;501;48.214;11.350;2023-07-30T00:03:46;19.30;61.90
1025;DHT22;501;48.214;11.350;2023-07-30T00:06:11;19.30;61.80
1025;DHT22;501;48.214;11.350;2023-07-30T00:08:37;19.20;62.00
1025;DHT22;501;48.214;11.350;2023-07-30T00:11:02;19.20;63.50
1025;DHT22;501;48.214;11.350;2023-07-30T00:13:28;19.20;61.70
1025;DHT22;501;48.214;11.350;2023-07-30T00:15:54;19.20;63.60
1025;DHT22;501;48.214;11.350;2023-07-30T00:18:19;19.20;65.40
1025;DHT22;501;48.214;11.350;2023-07-30T00:20:45;19.20;66.10
1025;DHT22;501;48.214;11.350;2023-07-30T00:23:11;19.20;63.60
1025;DHT22;501;48.214;11.350;2023-07-30T00:25:36;19.20;63.20
1025;DHT22;501;48.214;11.350;2023-07-30T00:28:02;19.10;65.00
1025;DHT22;501;48.214;11.350;2023-07-30T00:30:28;19.10;63.70
1025;DHT22;501;48.214;11.350;2023-07-30T00:32:53;19.10;63.10
1025;DHT22;501;48.214;11.350;2023-07-30T00:35:19;19.10;64.50
1025;DHT22;501;48.214;11.350;2023-07-30T00:37:45;19.10;65.00
1025;DHT22;501;48.214;11.350;2023-07-30T00:40:10;19.10;66.00
1025;DHT22;501;48.214;11.350;2023-07-30T00:42:36;19.10;64.40
1025;DHT22;501;48.214;11.350;2023-07-30T00:45:02;19.00;65.50
1025;DHT22;501;48.214;11.350;2023-07-30T00:47:28;19.10;65.10
1025;DHT22;501;48.214;11.350;2023-07-30T00:49:54;19.10;65.00
1025;DHT22;501;48.214;11.350;2023-07-30T00:52:21;19.10;66.00
1025;DHT22;501;48.214;11.350;2023-07-30T00:54:48;19.00;65.20
1025;DHT22;501;48.214;11.350;2023-07-30T00:57:15;19.00;65.50
1025;DHT22;501;48.214;11.350;2023-07-30T00:59:43;19.00;65.90
1025;DHT22;501;48.214;11.350;2023-07-30T01:02:09;19.10;66.70
1025;DHT22;501;48.214;11.350;2023-07-30T01:04:36;19.10;67.00
1025;DHT22;501;48.214;11.350;2023-07-30T01:07:06;19.00;64.70
1025;DHT22;501;48.214;11.350;2023-07-30T01:09:32;19.00;64.30
1025;DHT22;501;48.214;11.350;2023-07-30T01:11:59;19.00;63.20
1025;DHT22;501;48.214;11.350;2023-07-30T01:14:25;19.00;65.00
1025;DHT22;501;48.214;11.350;2023-07-30T01:16:52;19.00;65.00
1025;DHT22;501;48.214;11.350;2023-07-30T01:19:18;19.00;64.50
1025;DHT22;501;48.214;11.350;2023-07-30T01:21:44;19.00;65.90
1025;DHT22;501;48.214;11.350;2023-07-30T01:24:10;19.10;64.60
1025;DHT22;501;48.214;11.350;2023-07-30T01:27:08;19.00;64.20
1025;DHT22;501;48.214;11.350;2023-07-30T01:29:47;19.00;64.80
1025;DHT22;501;48.214;11.350;2023-07-30T01:32:14;19.00;65.80
1025;DHT22;501;48.214;11.350;2023-07-30T01:34:41;19.00;65.90
1025;DHT22;501;48.214;11.350;2023-07-30T01:37:12;19.00;65.80
1025;DHT22;501;48.214;11.350;2023-07-30T01:39:40;18.90;64.00
1025;DHT22;501;48.214;11.350;2023-07-30T01:42:07;18.90;63.80
1025;DHT22;501;48.214;11.350;2023-07-30T01:44:32;18.90;62.80
1025;DHT22;501;48.214;11.350;2023-07-30T01:46:58;18.90;64.10
1025;DHT22;501;48.214;11.350;2023-07-30T01:49:23;18.90;66.40
1025;DHT22;501;48.214;11.350;2023-07-30T01:51:49;18.90;65.20
1025;DHT22;501;48.214;11.350;2023-07-30T01:54:15;18.90;65.80
1025;DHT22;501;48.214;11.350;2023-07-30T01:56:40;18.90;64.90
1025;DHT22;501;48.214;11.350;2023-07-30T01:59:06;18.90;65.70
1025;DHT22;501;48.214;11.350;2023-07-30T02:01:31;18.90;65.20
1025;DHT22;501;48.214;11.350;2023-07-30T02:03:57;18.90;64.40
1025;DHT22;501;48.214;11.350;2023-07-30T02:06:23;18.90;64.90
1025;DHT22;501;48.214;11.350;2023-07-30T02:08:48;18.90;65.00
1025;DHT22;501;48.214;11.350;2023-07-30T02:11:14;18.90;64.80
1025;DHT22;501;48.214;11.350;2023-07-30T02:13:39;18.90;63.20
1025;DHT22;501;48.214;11.350;2023-07-30T02:16:05;18.90;64.20
1025;DHT22;501;48.214;11.350;2023-07-30T02:18:31;18.90;64.20
1025;DHT22;501;48.214;11.350;2023-07-30T02:20:56;18.90;64.80
1025;DHT22;501;48.214;11.350;2023-07-30T02:23:22;18.90;64.60
1025;DHT22;501;48.214;11.350;2023-07-30T02:25:47;18.90;65.70
1025;DHT22;501;48.214;11.350;2023-07-30T02:28:13;18.90;65.80
1025;DHT22;501;48.214;11.350;2023-07-30T02:30:39;18.90;65.80
1025;DHT22;501;48.214;11.350;2023-07-30T02:33:04;19.00;64.70
1025;DHT22;501;48.214;11.350;2023-07-30T02:35:30;19.00;63.70
1025;DHT22;501;48.214;11.350;2023-07-30T02:37:56;19.00;64.90
1025;DHT22;501;48.214;11.350;2023-07-30T02:40:21;19.00;64.70
1025;DHT22;501;48.214;11.350;2023-07-30T02:42:47;19.00;64.40
1025;DHT22;501;48.214;11.350;2023-07-30T02:45:13;19.00;65.50
1025;DHT22;501;48.214;11.350;2023-07-30T02:47:38;19.00;65.90
1025;DHT22;501;48.214;11.350;2023-07-30T02:50:04;19.00;65.80
1025;DHT22;501;48.214;11.350;2023-07-30T02:52:31;19.00;65.90
1025;DHT22;501;48.214;11.350;2023-07-30T02:54:57;19.00;67.00
1025;DHT22;501;48.214;11.350;2023-07-30T02:57:22;18.90;68.40
1025;DHT22;501;48.214;11.350;2023-07-30T02:59:48;18.90;68.80
1025;DHT22;501;48.214;11.350;2023-07-30T03:02:14;18.80;70.00
1025;DHT22;501;48.214;11.350;2023-07-30T03:04:39;18.80;70.50
1025;DHT22;501;48.214;11.350;2023-07-30T03:07:06;18.80;71.90
1025;DHT22;501;48.214;11.350;2023-07-30T03:09:32;18.80;71.40
1025;DHT22;501;48.214;11.350;2023-07-30T03:11:59;18.70;71.90
1025;DHT22;501;48.214;11.350;2023-07-30T03:14:24;18.70;71.90
1025;DHT22;501;48.214;11.350;2023-07-30T03:16:50;18.80;71.20
1025;DHT22;501;48.214;11.350;2023-07-30T03:19:16;18.70;72.30
1025;DHT22;501;48.214;11.350;2023-07-30T03:21:41;18.70;72.10
1025;DHT22;501;48.214;11.350;2023-07-30T03:24:07;18.70;72.50
1025;DHT22;501;48.214;11.350;2023-07-30T03:26:33;18.70;72.60
1025;DHT22;501;48.214;11.350;2023-07-30T03:28:59;18.70;73.00
1025;DHT22;501;48.214;11.350;2023-07-30T03:31:25;18.70;72.50
1025;DHT22;501;48.214;11.350;2023-07-30T03:33:50;18.70;71.90
1025;DHT22;501;48.214;11.350;2023-07-30T03:36:16;18.70;72.60
1025;DHT22;501;48.214;11.350;2023-07-30T03:38:42;18.70;73.20
1025;DHT22;501;48.214;11.350;2023-07-30T03:41:09;18.60;73.20
1025;DHT22;501;48.214;11.350;2023-07-30T03:43:35;18.60;73.20
1025;DHT22;501;48.214;11.350;2023-07-30T03:46:01;18.60;73.50
1025;DHT22;501;48.214;11.350;2023-07-30T03:48:27;18.60;73.50
1025;DHT22;501;48.214;11.350;2023-07-30T03:50:54;18.60;72.80
1025;DHT22;501;48.214;11.350;2023-07-30T03:53:19;18.60;73.50
1025;DHT22;501;48.214;11.350;2023-07-30T03:55:45;18.50;73.80
1025;DHT22;501;48.214;11.350;2023-07-30T03:58:11;18.50;74.00
1025;DHT22;501;48.214;11.350;2023-07-30T04:00:37;18.50;73.90
1025;DHT22;501;48.214;11.350;2023-07-30T04:03:02;18.50;74.60
1025;DHT22;501;48.214;11.350;2023-07-30T04:05:29;18.50;73.90
1025;DHT22;501;48.214;11.350;2023-07-30T04:07:55;18.50;74.00
1025;DHT22;501;48.214;11.350;2023-07-30T04:10:20;18.50;73.90
1025;DHT22;501;48.214;11.350;2023-07-30T04:12:46;18.50;73.90
1025;DHT22;501;48.214;11.350;2023-07-30T04:15:12;18.50;73.30
1025;DHT22;501;48.214;11.350;2023-07-30T04:17:38;18.40;73.30
1025;DHT22;501;48.214;11.350;2023-07-30T04:20:04;18.50;73.40
1025;DHT22;501;48.214;11.350;2023-07-30T04:22:30;18.40;72.80
1025;DHT22;501;48.214;11.350;2023-07-30T04:24:56;18.40;73.20
1025;DHT22;501;48.214;11.350;2023-07-30T04:27:21;18.40;73.80
1025;DHT22;501;48.214;11.350;2023-07-30T04:29:47;18.40;73.80
1025;DHT22;501;48.214;11.350;2023-07-30T04:32:13;18.40;73.80
1025;DHT22;501;48.214;11.350;2023-07-30T04:34:38;18.40;73.90
1025;DHT22;501;48.214;11.350;2023-07-30T04:37:04;18.40;73.90
1025;DHT22;501;48.214;11.350;2023-07-30T04:39:31;18.40;74.30
1025;DHT22;501;48.214;11.350;2023-07-30T04:41:57;18.40;75.30
1025;DHT22;501;48.214;11.350;2023-07-30T04:44:23;18.40;75.50
1025;DHT22;501;48.214;11.350;2023-07-30T04:46:49;18.40;74.90
1025;DHT22;501;48.214;11.350;2023-07-30T04:49:14;18.50;74.60
1025;DHT22;501;48.214;11.350;2023-07-30T04:51:40;18.50;73.90
1025;DHT22;501;48.214;11.350;2023-07-30T04:54:06;18.50;72.60
1025;DHT22;501;48.214;11.350;2023-07-30T04:56:31;18.60;72.70
1025;DHT22;501;48.214;11.350;2023-07-30T04:58:57;18.50;72.10
1025;DHT22;501;48.214;11.350;2023-07-30T05:01:24;18.60;72.10
1025;DHT22;501;48.214;11.350;2023-07-30T05:03:50;18.60;72.20
1025;DHT22;501;48.214;11.350;2023-07-30T05:06:15;18.60;71.20
1025;DHT22;501;48.214;11.350;2023-07-30T05:08:41;18.60;71.30
1025;DHT22;501;48.214;11.350;2023-07-30T05:11:06;18.60;70.80
1025;DHT22;501;48.214;11.350;2023-07-30T05:13:32;18.60;69.50
1025;DHT22;501;48.214;11.350;2023-07-30T05:15:57;18.60;69.40
1025;DHT22;501;48.214;11.350;2023-07-30T05:18:23;18.60;69.80
1025;DHT22;501;48.214;11.350;2023-07-30T05:20:49;18.60;70.60
1025;DHT22;501;48.214;11.350;2023-07-30T05:23:15;18.70;70.50
1025;DHT22;501;48.214;11.350;2023-07-30T05:25:40;18.70;70.50
1025;DHT22;501;48.214;11.350;2023-07-30T05:28:06;18.80;69.80
1025;DHT22;501;48.214;11.350;2023-07-30T05:30:31;18.90;69.60
1025;DHT22;501;48.214;11.350;2023-07-30T05:32:57;18.90;69.60
1025;DHT22;501;48.214;11.350;2023-07-30T05:35:23;18.90;66.40
1025;DHT22;501;48.214;11.350;2023-07-30T05:37:48;18.90;66.20
1025;DHT22;501;48.214;11.350;2023-07-30T05:40:17;18.90;67.90
1025;DHT22;501;48.214;11.350;2023-07-30T05:42:43;19.00;66.50
1025;DHT22;501;48.214;11.350;2023-07-30T05:45:09;19.00;65.90
1025;DHT22;501;48.214;11.350;2023-07-30T05:47:34;19.10;67.60
1025;DHT22;501;48.214;11.350;2023-07-30T05:50:01;19.10;66.00
1025;DHT22;501;48.214;11.350;2023-07-30T05:52:27;19.20;65.90
1025;DHT22;501;48.214;11.350;2023-07-30T05:54:52;19.30;63.80
1025;DHT22;501;48.214;11.350;2023-07-30T05:57:18;19.30;63.70
1025;DHT22;501;48.214;11.350;2023-07-30T05:59:43;19.40;63.50
1025;DHT22;501;48.214;11.350;2023-07-30T06:02:09;19.50;63.30
1025;DHT22;501;48.214;11.350;2023-07-30T06:04:34;19.50;62.40
1025;DHT22;501;48.214;11.350;2023-07-30T06:07:01;19.60;61.20
1025;DHT22;501;48.214;11.350;2023-07-30T06:09:27;19.60;60.70
1025;DHT22;501;48.214;11.350;2023-07-30T06:11:53;19.70;62.00
1025;DHT22;501;48.214;11.350;2023-07-30T06:14:18;19.80;60.80
1025;DHT22;501;48.214;11.350;2023-07-30T06:16:44;19.80;60.60
1025;DHT22;501;48.214;11.350;2023-07-30T06:19:09;19.80;60.90
1025;DHT22;501;48.214;11.350;2023-07-30T06:21:35;19.90;61.10
1025;DHT22;501;48.214;11.350;2023-07-30T06:24:01;20.00;60.70
1025;DHT22;501;48.214;11.350;2023-07-30T06:26:26;20.00;58.00
1025;DHT22;501;48.214;11.350;2023-07-30T06:28:52;20.10;58.20
1025;DHT22;501;48.214;11.350;2023-07-30T06:31:17;20.20;58.00
1025;DHT22;501;48.214;11.350;2023-07-30T06:33:43;20.20;56.90
1025;DHT22;501;48.214;11.350;2023-07-30T06:36:09;20.30;58.30
1025;DHT22;501;48.214;11.350;2023-07-30T06:38:34;20.30;56.50
1025;DHT22;501;48.214;11.350;2023-07-30T06:41:00;20.40;55.80
1025;DHT22;501;48.214;11.350;2023-07-30T06:43:26;20.40;54.90
1025;DHT22;501;48.214;11.350;2023-07-30T06:45:53;20.50;55.70
1025;DHT22;501;48.214;11.350;2023-07-30T06:48:19;20.50;56.50
1025;DHT22;501;48.214;11.350;2023-07-30T06:50:44;20.50;57.10
1025;DHT22;501;48.214;11.350;2023-07-30T06:53:10;20.60;53.90
1025;DHT22;501;48.214;11.350;2023-07-30T06:55:36;20.70;55.40
1025;DHT22;501;48.214;11.350;2023-07-30T06:58:01;20.70;55.50
1025;DHT22;501;48.214;11.350;2023-07-30T07:00:27;20.80;56.60
1025;DHT22;501;48.214;11.350;2023-07-30T07:02:53;20.90;53.10
1025;DHT22;501;48.214;11.350;2023-07-30T07:05:18;20.90;54.60
1025;DHT22;501;48.214;11.350;2023-07-30T07:07:45;20.90;52.90
1025;DHT22;501;48.214;11.350;2023-07-30T07:10:10;21.00;53.00
1025;DHT22;501;48.214;11.350;2023-07-30T07:12:37;21.10;52.10
1025;DHT22;501;48.214;11.350;2023-07-30T07:15:03;21.10;51.10
1025;DHT22;501;48.214;11.350;2023-07-30T07:17:29;21.20;52.50
1025;DHT22;501;48.214;11.350;2023-07-30T07:19:56;21.30;49.70
1025;DHT22;501;48.214;11.350;2023-07-30T07:22:22;21.30;51.10
1025;DHT22;501;48.214;11.350;2023-07-30T07:24:47;21.30;52.50
1025;DHT22;501;48.214;11.350;2023-07-30T07:27:13;21.40;50.60
1025;DHT22;501;48.214;11.350;2023-07-30T07:29:39;21.50;50.60
1025;DHT22;501;48.214;11.350;2023-07-30T07:32:05;21.60;51.50
1025;DHT22;501;48.214;11.350;2023-07-30T07:34:31;21.60;49.10
1025;DHT22;501;48.214;11.350;2023-07-30T07:36:56;21.70;50.30
1025;DHT22;501;48.214;11.350;2023-07-30T07:39:22;21.70;47.60
1025;DHT22;501;48.214;11.350;2023-07-30T07:41:47;21.70;47.50
1025;DHT22;501;48.214;11.350;2023-07-30T07:44:13;21.80;47.80
1025;DHT22;501;48.214;11.350;2023-07-30T07:46:38;21.80;48.30
1025;DHT22;501;48.214;11.350;2023-07-30T07:49:04;21.80;50.30
1025;DHT22;501;48.214;11.350;2023-07-30T07:51:30;21.90;48.60
1025;DHT22;501;48.214;11.350;2023-07-30T07:53:55;21.90;49.80
1025;DHT22;501;48.214;11.350;2023-07-30T07:56:21;22.10;47.40
1025;DHT22;501;48.214;11.350;2023-07-30T07:58:47;22.10;46.90
1025;DHT22;501;48.214;11.350;2023-07-30T08:01:12;22.20;46.50
1025;DHT22;501;48.214;11.350;2023-07-30T08:03:38;22.10;46.00
1025;DHT22;501;48.214;11.350;2023-07-30T08:06:03;22.10;44.00
1025;DHT22;501;48.214;11.350;2023-07-30T08:08:30;22.10;45.40
1025;DHT22;501;48.214;11.350;2023-07-30T08:10:56;22.20;46.10
1025;DHT22;501;48.214;11.350;2023-07-30T08:13:22;22.20;44.50
1025;DHT22;501;48.214;11.350;2023-07-30T08:15:48;22.20;44.50
1025;DHT22;501;48.214;11.350;2023-07-30T08:18:13;22.30;44.50
1025;DHT22;501;48.214;11.350;2023-07-30T08:20:39;22.30;44.40
1025;DHT22;501;48.214;11.350;2023-07-30T08:23:04;22.30;44.60
1025;DHT22;501;48.214;11.350;2023-07-30T08:25:30;22.40;43.80
1025;DHT22;501;48.214;11.350;2023-07-30T08:27:56;22.40;43.50
1025;DHT22;501;48.214;11.350;2023-07-30T08:30:21;22.40;44.80
1025;DHT22;501;48.214;11.350;2023-07-30T08:32:47;22.50;47.00
1025;DHT22;501;48.214;11.350;2023-07-30T08:35:12;22.60;42.70
1025;DHT22;501;48.214;11.350;2023-07-30T08:37:38;22.60;42.50
1025;DHT22;501;48.214;11.350;2023-07-30T08:40:04;22.60;41.60
1025;DHT22;501;48.214;11.350;2023-07-30T08:42:30;22.60;42.50
1025;DHT22;501;48.214;11.350;2023-07-30T08:44:56;22.60;42.50
1025;DHT22;501;48.214;11.350;2023-07-30T08:47:21;22.60;42.10
1025;DHT22;501;48.214;11.350;2023-07-30T08:49:47;22.50;42.40
1025;DHT22;501;48.214;11.350;2023-07-30T08:52:13;22.50;43.50
1025;DHT22;501;48.214;11.350;2023-07-30T08:54:42;22.50;42.40
1025;DHT22;501;48.214;11.350;2023-07-30T08:57:09;22.50;44.20
1025;DHT22;501;48.214;11.350;2023-07-30T08:59:49;22.50;44.10
1025;DHT22;501;48.214;11.350;2023-07-30T09:02:24;22.60;42.70
1025;DHT22;501;48.214;11.350;2023-07-30T09:04:53;22.70;43.30
1025;DHT22;501;48.214;11.350;2023-07-30T09:07:24;22.80;39.70
1025;DHT22;501;48.214;11.350;2023-07-30T09:09:50;22.80;40.50
1025;DHT22;501;48.214;11.350;2023-07-30T09:12:16;22.90;40.70
1025;DHT22;501;48.214;11.350;2023-07-30T09:14:42;23.00;39.60
1025;DHT22;501;48.214;11.350;2023-07-30T09:17:19;23.10;40.30
1025;DHT22;501;48.214;11.350;2023-07-30T09:19:45;23.10;38.40
1025;DHT22;501;48.214;11.350;2023-07-30T09:22:12;23.10;37.20
1025;DHT22;501;48.214;11.350;2023-07-30T09:24:45;23.20;37.60
1025;DHT22;501;48.214;11.350;2023-07-30T09:27:11;23.20;35.80
1025;DHT22;501;48.214;11.350;2023-07-30T09:29:36;23.10;35.90
1025;DHT22;501;48.214;11.350;2023-07-30T09:32:02;23.10;37.60
1025;DHT22;501;48.214;11.350;2023-07-30T09:34:28;23.10;38.20
1025;DHT22;501;48.214;11.350;2023-07-30T09:36:55;23.20;38.10
1025;DHT22;501;48.214;11.350;2023-07-30T09:39:25;23.30;38.50
1025;DHT22;501;48.214;11.350;2023-07-30T09:41:53;23.30;39.60
1025;DHT22;501;48.214;11.350;2023-07-30T09:44:24;23.40;36.20
1025;DHT22;501;48.214;11.350;2023-07-30T09:46:50;23.50;37.00
1025;DHT22;501;48.214;11.350;2023-07-30T09:49:17;23.50;36.70
1025;DHT22;501;48.214;11.350;2023-07-30T09:51:43;23.60;37.20
1025;DHT22;501;48.214;11.350;2023-07-30T09:54:13;23.60;37.80
1025;DHT22;501;48.214;11.350;2023-07-30T09:56:40;23.70;38.00
1025;DHT22;501;48.214;11.350;2023-07-30T09:59:07;23.80;34.30
1025;DHT22;501;48.214;11.350;2023-07-30T10:01:37;24.00;35.50
1025;DHT22;501;48.214;11.350;2023-07-30T10:04:07;24.10;34.50
1025;DHT22;501;48.214;11.350;2023-07-30T10:07:19;24.20;34.60
1025;DHT22;501;48.214;11.350;2023-07-30T10:09:30;24.20;34.20
1025;DHT22;501;48.214;11.350;2023-07-30T10:11:56;24.30;32.80
1025;DHT22;501;48.214;11.350;2023-07-30T10:14:24;24.30;34.20
1025;DHT22;501;48.214;11.350;2023-07-30T10:16:55;24.30;34.70
1025;DHT22;501;48.214;11.350;2023-07-30T10:19:25;24.30;34.70
1025;DHT22;501;48.214;11.350;2023-07-30T10:21:51;24.30;34.70
1025;DHT22;501;48.214;11.350;2023-07-30T10:24:17;24.20;34.60
1025;DHT22;501;48.214;11.350;2023-07-30T10:26:42;24.10;35.00
1025;DHT22;501;48.214;11.350;2023-07-30T10:29:14;24.00;35.10
1025;DHT22;501;48.214;11.350;2023-07-30T10:31:40;23.90;36.80
1025;DHT22;501;48.214;11.350;2023-07-30T10:34:08;23.90;37.50
1025;DHT22;501;48.214;11.350;2023-07-30T10:36:55;23.90;37.10
1025;DHT22;501;48.214;11.350;2023-07-30T10:39:26;23.90;37.50
1025;DHT22;501;48.214;11.350;2023-07-30T10:41:57;23.90;37.50
1025;DHT22;501;48.214;11.350;2023-07-30T10:44:25;24.00;37.40
1025;DHT22;501;48.214;11.350;2023-07-30T10:46:53;24.10;37.30
1025;DHT22;501;48.214;11.350;2023-07-30T10:49:19;24.20;37.90
1025;DHT22;501;48.214;11.350;2023-07-30T10:51:44;24.30;35.80
1025;DHT22;501;48.214;11.350;2023-07-30T10:54:10;24.40;34.80
1025;DHT22;501;48.214;11.350;2023-07-30T10:56:37;24.50;37.00
1025;DHT22;501;48.214;11.350;2023-07-30T10:59:07;24.70;34.70
1025;DHT22;501;48.214;11.350;2023-07-30T11:01:40;24.80;33.10
1025;DHT22;501;48.214;11.350;2023-07-30T11:04:11;25.00;34.70
1025;DHT22;501;48.214;11.350;2023-07-30T11:06:37;25.00;33.80
1025;DHT22;501;48.214;11.350;2023-07-30T11:09:04;25.10;31.90
1025;DHT22;501;48.214;11.350;2023-07-30T11:11:30;25.10;33.70
1025;DHT22;501;48.214;11.350;2023-07-30T11:13:57;25.10;32.60
1025;DHT22;501;48.214;11.350;2023-07-30T11:16:23;25.20;33.30
1025;DHT22;501;48.214;11.350;2023-07-30T11:18:49;25.20;33.50
1025;DHT22;501;48.214;11.350;2023-07-30T11:21:17;25.30;32.00
1025;DHT22;501;48.214;11.350;2023-07-30T11:23:45;25.20;34.20
1025;DHT22;501;48.214;11.350;2023-07-30T11:26:18;25.00;34.00
1025;DHT22;501;48.214;11.350;2023-07-30T11:28:45;24.60;35.00
1025;DHT22;501;48.214;11.350;2023-07-30T11:31:12;24.10;34.50
1025;DHT22;501;48.214;11.350;2023-07-30T11:33:45;23.70;35.20
1025;DHT22;501;48.214;11.350;2023-07-30T11:36:16;23.40;33.90
1025;DHT22;501;48.214;11.350;2023-07-30T11:38:45;23.10;34.10
1025;DHT22;501;48.214;11.350;2023-07-30T11:41:11;23.10;35.00
1025;DHT22;501;48.214;11.350;2023-07-30T11:43:39;23.20;36.00
1025;DHT22;501;48.214;11.350;2023-07-30T11:46:10;23.40;35.30
1025;DHT22;501;48.214;11.350;2023-07-30T11:48:37;23.50;35.60
1025;DHT22;501;48.214;11.350;2023-07-30T11:51:03;23.50;36.00
1025;DHT22;501;48.214;11.350;2023-07-30T11:54:04;23.40;36.10
1025;DHT22;501;48.214;11.350;2023-07-30T11:56:33;23.30;38.00
1025;DHT22;501;48.214;11.350;2023-07-30T12:01:30;23.50;39.40
1025;DHT22;501;48.214;11.350;2023-07-30T12:04:00;23.70;40.20
1025;DHT22;501;48.214;11.350;2023-07-30T12:09:15;24.30;39.30
1025;DHT22;501;48.214;11.350;2023-07-30T12:12:01;24.70;38.20
1025;DHT22;501;48.214;11.350;2023-07-30T12:17:15;25.40;36.00
1025;DHT22;501;48.214;11.350;2023-07-30T12:19:41;25.70;35.80
1025;DHT22;501;48.214;11.350;2023-07-30T12:22:07;25.90;35.90
1025;DHT22;501;48.214;11.350;2023-07-30T12:24:33;25.90;35.90
1025;DHT22;501;48.214;11.350;2023-07-30T12:26:59;26.10;36.00
1025;DHT22;501;48.214;11.350;2023-07-30T12:29:26;26.20;35.40
1025;DHT22;501;48.214;11.350;2023-07-30T12:31:51;26.30;34.50
1025;DHT22;501;48.214;11.350;2023-07-30T12:34:19;26.20;33.90
1025;DHT22;501;48.214;11.350;2023-07-30T12:36:45;26.30;33.60
1025;DHT22;501;48.214;11.350;2023-07-30T12:39:11;26.40;34.70
1025;DHT22;501;48.214;11.350;2023-07-30T12:41:37;26.40;32.90
1025;DHT22;501;48.214;11.350;2023-07-30T12:44:02;26.30;32.70
1025;DHT22;501;48.214;11.350;2023-07-30T12:46:30;25.90;33.40
1025;DHT22;501;48.214;11.350;2023-07-30T12:48:58;25.70;34.20
1025;DHT22;501;48.214;11.350;2023-07-30T12:51:27;25.60;34.20
1025;DHT22;501;48.214;11.350;2023-07-30T12:53:53;25.40;35.20
1025;DHT22;501;48.214;11.350;2023-07-30T12:56:19;25.40;35.60
1025;DHT22;501;48.214;11.350;2023-07-30T12:58:44;25.50;35.70
1025;DHT22;501;48.214;11.350;2023-07-30T13:01:10;25.60;35.70
1025;DHT22;501;48.214;11.350;2023-07-30T13:03:35;25.50;34.50
1025;DHT22;501;48.214;11.350;2023-07-30T13:06:02;25.30;35.50
1025;DHT22;501;48.214;11.350;2023-07-30T13:08:27;25.20;37.70
1025;DHT22;501;48.214;11.350;2023-07-30T13:10:53;25.20;35.80
1025;DHT22;501;48.214;11.350;2023-07-30T13:13:19;25.00;36.00
1025;DHT22;501;48.214;11.350;2023-07-30T13:15:44;24.80;36.90
1025;DHT22;501;48.214;11.350;2023-07-30T13:18:10;24.60;39.10
1025;DHT22;501;48.214;11.350;2023-07-30T13:20:35;24.30;38.70
1025;DHT22;501;48.214;11.350;2023-07-30T13:23:01;24.10;39.80
1025;DHT22;501;48.214;11.350;2023-07-30T13:25:27;23.70;43.60
1025;DHT22;501;48.214;11.350;2023-07-30T13:27:52;23.20;45.20
1025;DHT22;501;48.214;11.350;2023-07-30T13:30:18;22.70;48.80
1025;DHT22;501;48.214;11.350;2023-07-30T13:32:43;22.40;50.20
1025;DHT22;501;48.214;11.350;2023-07-30T13:35:09;22.20;52.40
1025;DHT22;501;48.214;11.350;2023-07-30T13:37:34;22.10;52.20
1025;DHT22;501;48.214;11.350;2023-07-30T13:40:00;22.10;54.00
1025;DHT22;501;48.214;11.350;2023-07-30T13:42:26;22.30;58.30
1025;DHT22;501;48.214;11.350;2023-07-30T13:44:51;22.50;56.00
1025;DHT22;501;48.214;11.350;2023-07-30T13:47:17;22.90;58.10
1025;DHT22;501;48.214;11.350;2023-07-30T13:49:43;23.40;52.40
1025;DHT22;501;48.214;11.350;2023-07-30T13:52:09;23.70;49.10
1025;DHT22;501;48.214;11.350;2023-07-30T13:54:34;24.00;46.70
1025;DHT22;501;48.214;11.350;2023-07-30T13:57:03;24.30;46.30
1025;DHT22;501;48.214;11.350;2023-07-30T13:59:30;24.60;44.30
1025;DHT22;501;48.214;11.350;2023-07-30T14:01:56;24.80;40.80
1025;DHT22;501;48.214;11.350;2023-07-30T14:04:21;24.90;41.20
1025;DHT22;501;48.214;11.350;2023-07-30T14:06:47;25.20;41.40
1025;DHT22;501;48.214;11.350;2023-07-30T14:09:13;25.30;38.60
1025;DHT22;501;48.214;11.350;2023-07-30T14:11:38;25.30;35.60
1025;DHT22;501;48.214;11.350;2023-07-30T14:14:06;25.30;35.50
1025;DHT22;501;48.214;11.350;2023-07-30T14:16:32;25.40;36.30
1025;DHT22;501;48.214;11.350;2023-07-30T14:18:58;25.50;36.40
1025;DHT22;501;48.214;11.350;2023-07-30T14:21:23;25.60;34.90
1025;DHT22;501;48.214;11.350;2023-07-30T14:23:49;25.70;33.50
1025;DHT22;501;48.214;11.350;2023-07-30T14:26:14;25.90;32.30
1025;DHT22;501;48.214;11.350;2023-07-30T14:28:40;26.00;29.20
1025;DHT22;501;48.214;11.350;2023-07-30T14:31:06;26.20;29.30
1025;DHT22;501;48.214;11.350;2023-07-30T14:33:31;26.20;29.60
1025;DHT22;501;48.214;11.350;2023-07-30T14:35:57;26.30;28.30
1025;DHT22;501;48.214;11.350;2023-07-30T14:38:23;26.40;28.20
1025;DHT22;501;48.214;11.350;2023-07-30T14:40:48;26.40;27.40
1025;DHT22;501;48.214;11.350;2023-07-30T14:43:14;26.40;27.40
1025;DHT22;501;48.214;11.350;2023-07-30T14:45:39;26.40;28.60
1025;DHT22;501;48.214;11.350;2023-07-30T14:48:05;26.50;27.20
1025;DHT22;501;48.214;11.350;2023-07-30T14:50:30;26.40;25.60
1025;DHT22;501;48.214;11.350;2023-07-30T14:52:56;26.30;26.50
1025;DHT22;501;48.214;11.350;2023-07-30T14:55:22;26.20;27.30
1025;DHT22;501;48.214;11.350;2023-07-30T14:57:47;26.10;27.20
1025;DHT22;501;48.214;11.350;2023-07-30T15:00:13;26.00;25.90
1025;DHT22;501;48.214;11.350;2023-07-30T15:02:43;26.00;25.60
1025;DHT22;501;48.214;11.350;2023-07-30T15:05:09;25.80;27.10
1025;DHT22;501;48.214;11.350;2023-07-30T15:07:35;25.50;26.30
1025;DHT22;501;48.214;11.350;2023-07-30T15:10:00;25.40;27.50
1025;DHT22;501;48.214;11.350;2023-07-30T15:12:26;25.60;27.00
1025;DHT22;501;48.214;11.350;2023-07-30T15:14:52;25.80;27.20
1025;DHT22;501;48.214;11.350;2023-07-30T15:17:18;26.00;26.40
1025;DHT22;501;48.214;11.350;2023-07-30T15:19:44;26.20;25.70
1025;DHT22;501;48.214;11.350;2023-07-30T15:22:12;26.30;26.00
1025;DHT22;501;48.214;11.350;2023-07-30T15:24:38;26.30;24.80
1025;DHT22;501;48.214;11.350;2023-07-30T15:27:04;26.10;25.90
1025;DHT22;501;48.214;11.350;2023-07-30T15:29:30;25.90;25.40
1025;DHT22;501;48.214;11.350;2023-07-30T15:31:56;25.60;26.40
1025;DHT22;501;48.214;11.350;2023-07-30T15:34:22;25.50;26.10
1025;DHT22;501;48.214;11.350;2023-07-30T15:36:48;25.60;26.40
1025;DHT22;501;48.214;11.350;2023-07-30T15:39:14;25.70;26.40
1025;DHT22;501;48.214;11.350;2023-07-30T15:41:39;25.90;26.00
1025;DHT22;501;48.214;11.350;2023-07-30T15:44:05;26.00;24.80
1025;DHT22;501;48.214;11.350;2023-07-30T15:46:31;26.00;25.50
1025;DHT22;501;48.214;11.350;2023-07-30T15:48:57;26.10;26.40
1025;DHT22;501;48.214;11.350;2023-07-30T15:51:22;26.10;25.10
1025;DHT22;501;48.214;11.350;2023-07-30T15:53:50;26.10;26.70
1025;DHT22;501;48.214;11.350;2023-07-30T15:56:15;26.00;24.90
1025;DHT22;501;48.214;11.350;2023-07-30T15:58:41;25.90;26.70
1025;DHT22;501;48.214;11.350;2023-07-30T16:01:07;25.80;26.10
1025;DHT22;501;48.214;11.350;2023-07-30T16:03:36;25.90;27.00
1025;DHT22;501;48.214;11.350;2023-07-30T16:06:04;26.00;26.40